Time;durP1;ratioP1;P1;durP2;ratioP2;P2;SDS_P1;SDS_P2;PMS_P1;PMS_P2;Temp;Humidity;BMP_temperature;BMP_pressure;BME280_temperature;BME280_humidity;BME280_pressure;Samples;Min_cycle;Max_cycle;Signal;HPM_P1;HPM_P2
2022/06/30 00:01:26;;;;;;;2.83;2.13;;;;;;;22.16;nan;100066.06;5006554;28;20541;-73
2022/06/30 00:03:52;;;;;;;2.42;1.92;;;;;;;22.14;nan;100065.47;5003511;28;20026;-73
2022/06/30 00:06:17;;;;;;;;;;;;;;;22.10;nan;100065.16;5006085;28;20546;-74
2022/06/30 00:08:42;;;;;;;4.10;2.60;;;;;;;22.12;nan;100067.56;4984503;28;19921;-73
2022/06/30 00:11:07;;;;;;;3.15;2.33;;;;;;;22.11;nan;100060.56;5002089;28;20674;-73
2022/06/30 00:13:34;;;;;;;4.00;2.40;;;;;;;22.09;nan;100063.50;5003608;28;20068;-73
2022/06/30 00:16:00;;;;;;;2.67;2.33;;;;;;;22.03;nan;100059.88;5007754;28;20415;-73
2022/06/30 00:18:25;;;;;;;4.28;2.70;;;;;;;21.95;nan;100057.59;5005734;28;20044;-73
2022/06/30 00:20:50;;;;;;;3.20;2.60;;;;;;;21.88;nan;100056.06;5003721;28;20038;-73
2022/06/30 00:23:15;;;;;;;2.73;2.30;;;;;;;21.86;nan;100061.69;5004345;28;20910;-73
2022/06/30 00:25:41;;;;;;;3.67;2.22;;;;;;;21.87;nan;100059.81;5004249;28;20285;-76
2022/06/30 00:28:06;;;;;;;3.40;2.60;;;;;;;21.88;nan;100062.28;5004284;28;20113;-73
2022/06/30 00:30:32;;;;;;;3.70;2.30;;;;;;;21.90;nan;100054.75;5007348;28;20080;-73
2022/06/30 00:32:57;;;;;;;3.90;2.53;;;;;;;21.90;nan;100060.16;5006684;28;20050;-74
2022/06/30 00:35:22;;;;;;;3.40;2.30;;;;;;;21.91;nan;100061.81;5007435;28;20074;-74
2022/06/30 00:37:47;;;;;;;2.85;2.10;;;;;;;21.92;nan;100049.16;5012321;28;20034;-73
2022/06/30 00:40:13;;;;;;;2.70;2.33;;;;;;;21.89;nan;100053.13;5010783;28;20033;-73
2022/06/30 00:42:38;;;;;;;2.50;2.30;;;;;;;21.87;nan;100049.06;5007156;28;20383;-73
2022/06/30 00:45:04;;;;;;;3.28;2.38;;;;;;;21.81;nan;100050.84;5009426;28;20033;-73
2022/06/30 00:47:29;;;;;;;2.83;2.00;;;;;;;21.75;nan;100051.78;4990103;28;20433;-73
2022/06/30 00:49:55;;;;;;;4.00;1.95;;;;;;;21.73;nan;100057.38;4992003;28;20133;-73
2022/06/30 00:52:21;;;;;;;2.83;2.00;;;;;;;21.71;nan;100058.66;5006819;28;20037;-73
2022/06/30 00:54:50;;;;;;;2.45;1.90;;;;;;;21.66;nan;100051.31;5008596;28;20070;-73
2022/06/30 00:57:18;;;;;;;2.30;1.80;;;;;;;21.60;nan;100052.25;5004468;28;20041;-73
2022/06/30 00:59:45;;;;;;;3.00;1.70;;;;;;;21.53;nan;100049.69;5007655;28;20076;-73
2022/06/30 01:02:12;;;;;;;2.75;1.90;;;;;;;21.48;nan;100054.97;5010206;28;20061;-73
2022/06/30 01:04:40;;;;;;;2.25;1.77;;;;;;;21.46;nan;100053.56;5009844;28;20042;-73
2022/06/30 01:07:06;;;;;;;2.30;1.85;;;;;;;21.36;nan;100052.25;5009619;28;20030;-73
2022/06/30 01:15:01;;;;;;;4.22;2.53;;;;;;;21.25;nan;100045.00;5009722;28;20032;-73
2022/06/30 01:17:26;;;;;;;3.08;2.05;;;;;;;21.28;nan;100047.19;5009523;28;20030;-73
2022/06/30 01:19:56;;;;;;;3.97;2.40;;;;;;;21.23;nan;100041.72;5009287;28;20089;-72
2022/06/30 01:22:21;;;;;;;3.30;2.25;;;;;;;21.19;nan;100041.38;5005839;28;20471;-75
2022/06/30 01:24:47;;;;;;;2.60;2.15;;;;;;;21.16;nan;100041.81;5008008;28;20117;-75
2022/06/30 01:27:12;;;;;;;2.88;2.05;;;;;;;21.13;nan;100038.81;5009511;28;20029;-74
2022/06/30 01:29:37;;;;;;;2.22;1.88;;;;;;;21.07;nan;100028.97;4991751;28;20033;-73
2022/06/30 01:32:03;;;;;;;2.63;2.00;;;;;;;21.03;nan;100038.56;5008556;28;20042;-74
2022/06/30 01:34:29;;;;;;;3.47;1.88;;;;;;;20.95;nan;100032.47;5008301;28;20406;-74
2022/06/30 01:36:54;;;;;;;2.28;1.90;;;;;;;20.89;nan;100035.28;5005379;28;20527;-74
2022/06/30 01:39:19;;;;;;;3.28;2.25;;;;;;;20.77;nan;100029.88;4989014;28;20045;-74
2022/06/30 01:41:44;;;;;;;3.67;2.90;;;;;;;20.64;nan;100038.13;5010006;28;20033;-75
2022/06/30 01:44:11;;;;;;;2.90;2.33;;;;;;;20.52;nan;100040.75;4993575;28;20036;-74
2022/06/30 01:46:36;;;;;;;2.70;2.40;;;;;;;20.44;nan;100031.16;4989704;28;20288;-74
2022/06/30 01:49:02;;;;;;;3.10;2.60;;;;;;;20.36;nan;100029.63;5009121;28;20042;-74
2022/06/30 01:51:27;;;;;;;3.67;2.83;;;;;;;20.30;nan;100043.13;5009200;28;20606;-75
2022/06/30 01:53:53;;;;;;;3.28;2.70;;;;;;;20.23;nan;100045.91;5007916;28;20038;-74
2022/06/30 01:56:18;;;;;;;3.35;2.78;;;;;;;20.19;nan;100041.22;4983488;28;20322;-74
2022/06/30 01:58:44;;;;;;;3.95;2.80;;;;;;;20.14;nan;100036.53;5007715;28;20041;-74
2022/06/30 02:01:09;;;;;;;2.92;2.47;;;;;;;20.09;nan;100044.44;5007180;28;20088;-75
2022/06/30 02:03:34;;;;;;;3.63;2.50;;;;;;;20.05;nan;100044.09;5007918;28;20044;-74
2022/06/30 02:06:00;;;;;;;4.07;2.28;;;;;;;20.03;nan;100040.00;4986117;28;20096;-75
2022/06/30 02:08:25;;;;;;;3.38;2.10;;;;;;;20.01;nan;100044.75;5007079;28;20140;-74
2022/06/30 02:10:50;;;;;;;2.65;2.20;;;;;;;19.99;nan;100044.97;5007735;28;20038;-75
2022/06/30 02:13:16;;;;;;;2.88;2.28;;;;;;;19.96;nan;100050.00;4989903;28;20041;-75
2022/06/30 02:15:41;;;;;;;3.47;2.65;;;;;;;19.92;nan;100049.59;5006974;28;20073;-74
2022/06/30 02:18:08;;;;;;;2.85;2.38;;;;;;;19.88;nan;100040.38;5006251;28;20168;-75
2022/06/30 02:20:34;;;;;;;4.18;2.72;;;;;;;19.85;nan;100047.00;5007782;28;20042;-74
2022/06/30 02:23:02;;;;;;;3.00;2.22;;;;;;;19.82;nan;100038.59;5007133;28;20121;-74
2022/06/30 02:25:29;;;;;;;2.30;2.10;;;;;;;19.78;nan;100043.56;5006531;28;20029;-74
2022/06/30 02:27:55;;;;;;;2.60;2.10;;;;;;;19.76;nan;100039.47;4987676;28;20120;-74
2022/06/30 02:30:22;;;;;;;3.05;2.30;;;;;;;19.72;nan;100045.28;5006915;28;20038;-74
2022/06/30 02:32:47;;;;;;;2.50;2.20;;;;;;;19.84;nan;100040.00;5006297;28;20417;-74
2022/06/30 02:35:13;;;;;;;2.75;2.17;;;;;;;19.74;nan;100039.72;5007240;28;20289;-75
2022/06/30 02:37:38;;;;;;;2.97;2.35;;;;;;;19.64;nan;100040.22;4989559;28;20511;-74
2022/06/30 02:40:04;;;;;;;3.17;2.50;;;;;;;19.58;nan;100041.09;5005717;28;20037;-75
2022/06/30 02:42:30;;;;;;;3.58;2.30;;;;;;;19.68;nan;100044.09;5005306;28;20487;-75
2022/06/30 02:44:55;;;;;;;3.28;2.40;;;;;;;19.56;nan;100042.34;5006675;28;20121;-74
2022/06/30 02:47:21;;;;;;;2.70;2.22;;;;;;;19.47;nan;100039.97;5009953;28;20025;-74
2022/06/30 02:49:46;;;;;;;4.97;2.50;;;;;;;19.42;nan;100041.66;5008146;28;20077;-74
2022/06/30 02:52:12;;;;;;;3.53;2.30;;;;;;;19.38;nan;100043.16;5005948;28;20235;-74
2022/06/30 02:54:37;;;;;;;2.90;2.30;;;;;;;19.34;nan;100041.97;4989691;28;20805;-74
2022/06/30 02:57:03;;;;;;;4.70;2.80;;;;;;;19.28;nan;100049.00;4986150;28;20046;-74
2022/06/30 02:59:28;;;;;;;2.97;2.30;;;;;;;19.23;nan;100048.84;5006528;28;20030;-75
2022/06/30 03:01:54;;;;;;;2.80;2.50;;;;;;;19.17;nan;100053.25;5006931;28;20068;-74
2022/06/30 03:04:21;;;;;;;;;;;;;;;19.09;nan;100050.81;5008132;28;20034;-75
2022/06/30 03:06:46;;;;;;;3.90;2.95;;;;;;;19.04;nan;100051.50;5008485;28;20310;-74
2022/06/30 03:09:12;;;;;;;3.58;2.70;;;;;;;18.99;nan;100051.31;5007033;28;20040;-74
2022/06/30 03:11:37;;;;;;;3.28;2.50;;;;;;;18.96;nan;100048.28;5006173;28;20044;-75
2022/06/30 03:14:02;;;;;;;3.65;2.20;;;;;;;18.93;nan;100049.53;4987922;28;20380;-74
2022/06/30 03:16:28;;;;;;;2.65;2.28;;;;;;;18.91;nan;100046.25;5006257;28;20057;-74
2022/06/30 03:18:53;;;;;;;2.67;2.30;;;;;;;18.93;nan;100043.38;5005706;28;20534;-74
2022/06/30 03:21:20;;;;;;;2.63;2.08;;;;;;;18.93;nan;100030.78;5004617;28;20045;-75
2022/06/30 03:23:46;;;;;;;3.47;2.38;;;;;;;18.91;nan;100035.53;5006198;28;20053;-74
2022/06/30 03:26:12;;;;;;;3.10;2.47;;;;;;;18.89;nan;100042.97;5007025;28;20034;-74
2022/06/30 03:28:37;;;;;;;3.38;2.40;;;;;;;18.85;nan;100039.91;5006554;28;20060;-75
2022/06/30 03:31:03;;;;;;;4.55;2.58;;;;;;;18.83;nan;100046.50;5006747;28;20042;-74
2022/06/30 03:33:28;;;;;;;3.05;2.15;;;;;;;18.81;nan;100045.94;4986966;28;20026;-75
2022/06/30 03:35:53;;;;;;;3.17;2.20;;;;;;;18.76;nan;100046.56;5005351;28;20038;-74
2022/06/30 03:38:19;;;;;;;3.50;2.30;;;;;;;18.72;nan;100056.03;5006566;28;20036;-74
2022/06/30 03:40:45;;;;;;;3.10;2.65;;;;;;;18.70;nan;100051.94;5005635;28;20045;-75
2022/06/30 03:43:10;;;;;;;3.08;2.15;;;;;;;18.67;nan;100047.84;5004316;28;20049;-75
2022/06/30 03:45:35;;;;;;;3.28;2.50;;;;;;;18.65;nan;100047.22;4989027;28;20052;-74
2022/06/30 03:48:02;;;;;;;5.40;2.60;;;;;;;18.62;nan;100047.69;5006488;28;20092;-74
2022/06/30 03:50:30;;;;;;;3.67;2.85;;;;;;;18.61;nan;100048.69;5006460;28;20112;-74
2022/06/30 03:52:55;;;;;;;5.78;2.75;;;;;;;18.59;nan;100048.94;4984605;28;20046;-74
2022/06/30 03:55:20;;;;;;;2.70;2.42;;;;;;;18.61;nan;100057.53;5006208;28;20089;-74
2022/06/30 03:57:46;;;;;;;3.97;2.58;;;;;;;18.59;nan;100056.97;5006065;28;20041;-75
2022/06/30 04:00:12;;;;;;;3.45;2.58;;;;;;;18.57;nan;100061.72;5006058;28;20495;-74
2022/06/30 04:02:37;;;;;;;3.40;2.50;;;;;;;18.57;nan;100060.91;5006178;28;20037;-75
2022/06/30 04:05:04;;;;;;;3.15;2.33;;;;;;;18.59;nan;100064.16;4988320;28;20096;-74
2022/06/30 04:07:29;;;;;;;2.60;2.08;;;;;;;18.61;nan;100065.56;5005911;28;20041;-75
2022/06/30 04:09:55;;;;;;;3.03;2.30;;;;;;;18.63;nan;100062.69;5007352;28;20034;-75
2022/06/30 04:12:20;;;;;;;2.85;2.33;;;;;;;18.64;nan;100067.03;5009278;28;20034;-75
2022/06/30 04:14:45;;;;;;;2.58;2.00;;;;;;;18.70;nan;100068.00;5012043;28;20335;-75
2022/06/30 04:17:10;;;;;;;3.08;2.03;;;;;;;18.79;nan;100064.88;5007221;28;20038;-74
2022/06/30 04:19:37;;;;;;;2.80;2.15;;;;;;;18.87;nan;100059.25;5010198;28;20033;-75
2022/06/30 04:22:04;;;;;;;2.88;2.22;;;;;;;18.94;nan;100061.06;5008965;28;20038;-75
2022/06/30 04:24:29;;;;;;;2.67;2.13;;;;;;;18.99;nan;100059.38;5008489;28;20057;-74
2022/06/30 04:26:54;;;;;;;3.35;1.92;;;;;;;19.04;nan;100053.34;5006027;28;20299;-75
2022/06/30 04:29:20;;;;;;;2.50;1.90;;;;;;;19.09;nan;100049.00;5009708;28;20049;-74
2022/06/30 04:34:29;;;;;;;3.13;1.70;;;;;;;19.21;nan;100046.41;5009398;28;20069;-75
2022/06/30 04:36:54;;;;;;;2.13;1.73;;;;;;;19.25;nan;100044.09;5009403;28;20061;-75
2022/06/30 04:39:21;;;;;;;2.72;2.00;;;;;;;19.29;nan;100040.75;5010775;28;20292;-74
2022/06/30 04:41:46;;;;;;;2.58;1.90;;;;;;;19.36;nan;100045.25;5007326;28;21284;-74
2022/06/30 04:44:11;;;;;;;3.10;2.13;;;;;;;19.38;nan;100044.00;5010029;28;20041;-75
2022/06/30 04:46:37;;;;;;;5.65;2.65;;;;;;;19.41;nan;100048.91;5009511;28;20033;-75
2022/06/30 04:49:02;;;;;;;2.90;2.10;;;;;;;19.43;nan;100048.69;5009633;28;20034;-75
2022/06/30 04:51:27;;;;;;;2.60;2.10;;;;;;;19.48;nan;100044.28;5009733;28;21288;-74
2022/06/30 04:53:53;;;;;;;2.97;2.22;;;;;;;19.53;nan;100047.13;5009243;28;20118;-75
2022/06/30 04:56:20;;;;;;;2.83;1.98;;;;;;;19.61;nan;100050.56;5008434;28;20038;-74
2022/06/30 04:58:45;;;;;;;3.30;2.40;;;;;;;19.64;nan;100042.91;5007204;28;20121;-75
2022/06/30 05:01:11;;;;;;;2.78;2.28;;;;;;;19.67;nan;100034.38;5009855;28;20110;-75
2022/06/30 05:03:37;;;;;;;3.28;2.45;;;;;;;19.73;nan;100038.91;4991952;28;20483;-75
2022/06/30 05:06:04;;;;;;;3.13;2.28;;;;;;;19.86;nan;100048.66;5006476;28;20057;-76
2022/06/30 05:08:30;;;;;;;2.97;2.38;;;;;;;19.96;nan;100045.44;5005184;28;20049;-74
2022/06/30 05:10:55;;;;;;;2.95;2.33;;;;;;;20.03;nan;100040.00;5009286;28;20483;-75
2022/06/30 05:13:21;;;;;;;1.90;1.60;;;;;;;20.24;nan;100047.56;4990226;28;20425;-74
2022/06/30 05:15:46;;;;;;;2.72;2.00;;;;;;;20.26;nan;100050.00;4989583;28;20037;-75
2022/06/30 05:18:12;;;;;;;2.47;1.80;;;;;;;20.31;nan;100044.78;4993060;28;20030;-75
2022/06/30 05:20:37;;;;;;;;;;;;;;;20.33;nan;100040.84;5012273;28;20565;-76
2022/06/30 05:23:03;;;;;;;2.70;2.20;;;;;;;20.41;nan;100041.56;5008649;28;19922;-75
2022/06/30 05:28:13;;;;;;;4.70;3.05;;;;;;;20.79;nan;100033.97;5008912;28;20045;-75
2022/06/30 05:30:39;;;;;;;3.55;2.45;;;;;;;20.92;nan;100032.94;5005195;28;20455;-75
2022/06/30 05:33:04;;;;;;;2.42;2.00;;;;;;;21.02;nan;100039.59;5000253;28;20046;-75
2022/06/30 05:35:30;;;;;;;4.65;2.33;;;;;;;21.09;nan;100033.06;5006963;28;20418;-75
2022/06/30 05:37:55;;;;;;;4.93;2.50;;;;;;;21.16;nan;100031.06;5013416;28;20084;-74
2022/06/30 05:40:20;;;;;;;4.22;2.60;;;;;;;21.31;nan;100040.53;4990347;28;20022;-76
2022/06/30 05:42:46;;;;;;;3.40;2.30;;;;;;;21.47;nan;100037.16;5011157;28;20057;-75
2022/06/30 05:45:11;;;;;;;2.30;2.10;;;;;;;21.58;nan;100035.53;5005861;28;20303;-75
2022/06/30 05:47:50;;;;;;;3.72;2.40;;;;;;;21.72;nan;100033.41;5010948;28;20269;-75
2022/06/30 05:50:16;;;;;;;2.92;2.50;;;;;;;21.91;nan;100034.06;5003066;28;20038;-75
2022/06/30 05:52:42;;;;;;;3.70;2.40;;;;;;;22.25;nan;100040.41;5007190;28;20048;-75
2022/06/30 05:55:08;;;;;;;3.90;2.50;;;;;;;22.69;nan;100041.47;5011422;28;20348;-75
2022/06/30 05:57:33;;;;;;;4.68;2.42;;;;;;;23.24;nan;100036.41;5010727;28;20034;-76
2022/06/30 05:59:59;;;;;;;3.63;2.63;;;;;;;23.79;nan;100032.88;5011115;28;20030;-75
2022/06/30 06:02:24;;;;;;;3.00;2.30;;;;;;;24.29;nan;100031.03;5008780;28;20033;-74
2022/06/30 06:04:50;;;;;;;3.38;2.30;;;;;;;24.77;nan;100026.63;5011170;28;20026;-76
2022/06/30 06:07:15;;;;;;;4.32;2.40;;;;;;;25.14;nan;100026.59;5010273;28;20114;-74
2022/06/30 06:09:40;;;;;;;3.60;2.50;;;;;;;25.39;nan;100023.28;5010954;28;20033;-74
2022/06/30 06:12:06;;;;;;;2.78;1.85;;;;;;;25.89;nan;100021.09;5009971;28;20486;-76
2022/06/30 06:14:31;;;;;;;2.50;1.90;;;;;;;26.39;nan;100027.72;5010325;28;20521;-76
2022/06/30 06:16:57;;;;;;;3.47;2.10;;;;;;;26.66;nan;100013.13;5005530;28;20030;-75
2022/06/30 06:19:22;;;;;;;4.13;2.58;;;;;;;26.81;nan;100020.44;5010964;28;20080;-74
2022/06/30 06:21:48;;;;;;;6.10;2.63;;;;;;;27.11;nan;100022.34;5010722;28;20415;-76
2022/06/30 06:24:14;;;;;;;5.70;1.80;;;;;;;27.36;nan;100026.09;5005563;28;20108;-75
2022/06/30 06:26:39;;;;;;;3.75;1.88;;;;;;;27.89;nan;100019.16;5010772;28;20491;-74
2022/06/30 06:29:08;;;;;;;2.80;1.90;;;;;;;28.12;nan;100014.13;4992359;28;20034;-76
2022/06/30 06:31:36;;;;;;;3.88;1.55;;;;;;;28.69;nan;100017.28;5010487;28;20038;-74
2022/06/30 06:34:02;;;;;;;2.80;1.30;;;;;;;29.33;nan;100024.31;4994227;28;20042;-74
2022/06/30 06:36:28;;;;;;;2.10;1.45;;;;;;;29.80;nan;100025.44;5009964;28;20570;-75
2022/06/30 06:38:53;;;;;;;2.58;1.58;;;;;;;30.31;nan;100028.59;4991424;28;20041;-74
2022/06/30 06:41:20;;;;;;;1.90;1.38;;;;;;;30.54;nan;100024.16;5004704;28;20029;-75
2022/06/30 06:43:50;;;;;;;2.38;1.60;;;;;;;31.04;nan;100033.41;5012458;28;20181;-75
2022/06/30 06:46:16;;;;;;;3.20;1.40;;;;;;;31.44;nan;100022.88;5002704;28;20045;-75
2022/06/30 06:48:41;;;;;;;2.38;1.35;;;;;;;31.72;nan;100028.31;5009768;28;20038;-74
2022/06/30 06:51:06;;;;;;;3.20;1.38;;;;;;;32.02;nan;100031.53;5010466;28;20048;-74
2022/06/30 06:53:32;;;;;;;2.50;1.40;;;;;;;32.16;nan;100035.84;5015886;28;20136;-77
2022/06/30 06:55:57;;;;;;;2.90;1.33;;;;;;;32.34;nan;100036.81;5004143;28;20502;-74
2022/06/30 06:58:22;;;;;;;3.83;1.70;;;;;;;32.37;nan;100032.66;5008974;28;20044;-74
2022/06/30 07:00:48;;;;;;;1.83;1.40;;;;;;;32.54;nan;100026.53;5011357;28;20495;-74
2022/06/30 07:03:13;;;;;;;2.38;1.50;;;;;;;32.67;nan;100025.66;5010198;28;20277;-74
2022/06/30 07:05:39;;;;;;;1.92;1.40;;;;;;;32.77;nan;100033.63;5009853;28;20030;-74
2022/06/30 07:08:04;;;;;;;4.30;1.58;;;;;;;32.74;nan;100039.72;5011474;28;20176;-76
2022/06/30 07:10:29;;;;;;;2.50;1.13;;;;;;;32.94;nan;100043.03;5012276;28;20041;-75
2022/06/30 07:12:55;;;;;;;1.67;1.20;;;;;;;33.06;nan;100037.84;5009378;28;20100;-74
2022/06/30 07:15:23;;;;;;;3.83;1.63;;;;;;;33.27;nan;100042.75;5009918;28;20033;-74
2022/06/30 07:17:49;;;;;;;2.40;1.50;;;;;;;33.32;nan;100029.72;5009269;28;20107;-74
2022/06/30 07:20:14;;;;;;;3.80;1.42;;;;;;;33.48;nan;100026.56;5009381;28;20072;-74
2022/06/30 07:22:40;;;;;;;2.33;1.50;;;;;;;33.69;nan;100026.81;5008734;28;20037;-75
2022/06/30 07:25:06;;;;;;;4.25;1.83;;;;;;;33.65;nan;100029.38;5006334;28;20518;-74
2022/06/30 07:27:32;;;;;;;2.22;1.58;;;;;;;33.61;nan;100036.66;5009626;28;20581;-74
2022/06/30 07:29:58;;;;;;;2.28;1.50;;;;;;;33.74;nan;100030.22;5017173;28;20036;-75
2022/06/30 07:32:24;;;;;;;2.78;1.58;;;;;;;33.78;nan;100041.34;5010347;28;20034;-74
2022/06/30 07:34:49;;;;;;;2.47;1.40;;;;;;;33.96;nan;100037.50;5006722;28;20384;-77
2022/06/30 07:37:14;;;;;;;2.13;1.40;;;;;;;34.12;nan;100045.31;5009986;28;20060;-74
2022/06/30 07:39:40;;;;;;;2.50;1.48;;;;;;;34.18;nan;100036.59;5014804;28;20165;-74
2022/06/30 07:42:05;;;;;;;2.28;1.60;;;;;;;34.28;nan;100035.47;5028813;28;20540;-74
2022/06/30 07:44:30;;;;;;;1.77;1.40;;;;;;;34.21;nan;100046.13;5011289;28;20049;-74
2022/06/30 07:46:56;;;;;;;2.83;1.50;;;;;;;34.39;nan;100039.47;4976739;28;20052;-75
2022/06/30 07:49:22;;;;;;;2.33;1.30;;;;;;;34.73;nan;100040.63;5000650;28;20285;-74
2022/06/30 07:51:48;;;;;;;4.10;1.25;;;;;;;34.85;nan;100046.25;4997904;28;20045;-74
2022/06/30 07:54:13;;;;;;;3.55;1.40;;;;;;;34.98;nan;100038.13;4997902;28;20038;-74
2022/06/30 07:56:38;;;;;;;4.70;1.42;;;;;;;35.06;nan;100042.78;5013260;28;20048;-74
2022/06/30 07:59:04;;;;;;;3.22;1.58;;;;;;;35.16;nan;100036.16;5010322;28;20363;-75
2022/06/30 08:01:29;;;;;;;2.23;1.40;;;;;;;35.39;nan;100034.78;4993954;28;20058;-74
2022/06/30 08:03:54;;;;;;;1.45;1.02;;;;;;;35.81;nan;100031.34;4994764;28;20356;-74
2022/06/30 08:06:21;;;;;;;2.25;1.30;;;;;;;35.82;nan;100030.19;5013393;28;20038;-75
2022/06/30 08:08:47;;;;;;;3.88;1.40;;;;;;;35.75;nan;100019.72;5013503;28;20398;-75
2022/06/30 08:11:12;;;;;;;2.25;1.27;;;;;;;35.85;nan;100030.34;4995302;28;20034;-75
2022/06/30 08:13:38;;;;;;;2.22;1.48;;;;;;;36.28;nan;100020.16;5009224;28;20030;-75
2022/06/30 08:16:03;;;;;;;3.35;1.80;;;;;;;36.51;nan;100018.63;4993581;28;20111;-74
2022/06/30 08:18:29;;;;;;;2.10;1.33;;;;;;;36.74;nan;100021.06;4994021;28;20030;-75
2022/06/30 08:20:54;;;;;;;1.60;1.10;;;;;;;37.16;nan;100018.16;4993994;28;20026;-75
2022/06/30 08:23:20;;;;;;;4.22;1.63;;;;;;;36.94;nan;100019.38;4996057;28;20415;-74
2022/06/30 08:25:45;;;;;;;3.08;1.42;;;;;;;37.17;nan;100015.06;5013209;28;20111;-74
2022/06/30 08:28:10;;;;;;;2.08;1.60;;;;;;;37.52;nan;100016.53;5011582;28;20522;-75
2022/06/30 08:30:36;;;;;;;2.00;1.35;;;;;;;37.95;nan;100013.19;4975385;28;20039;-77
2022/06/30 08:33:02;;;;;;;3.25;1.33;;;;;;;38.28;nan;100011.38;4984618;28;20062;-78
2022/06/30 08:35:27;;;;;;;2.58;1.40;;;;;;;38.67;nan;100012.47;4975901;28;20450;-74
2022/06/30 08:37:53;;;;;;;2.92;1.20;;;;;;;38.72;nan;100011.41;5005646;28;20029;-74
2022/06/30 08:43:03;;;;;;;2.33;1.45;;;;;;;39.21;nan;100011.09;5004383;28;20036;-76
2022/06/30 08:45:29;;;;;;;2.20;1.40;;;;;;;39.41;nan;100010.03;5027346;28;20457;-75
2022/06/30 08:47:55;;;;;;;2.58;1.38;;;;;;;40.01;nan;100014.53;5008863;28;20517;-74
2022/06/30 08:50:21;;;;;;;2.95;1.40;;;;;;;39.95;nan;100015.97;4999570;28;20113;-74
2022/06/30 08:52:52;;;;;;;2.00;1.40;;;;;;;40.21;nan;100010.59;5008682;28;20116;-74
2022/06/30 08:55:20;;;;;;;2.92;1.50;;;;;;;40.50;nan;100009.22;5012893;28;20238;-75
2022/06/30 08:57:47;;;;;;;4.10;1.23;;;;;;;41.04;nan;99998.28;5012042;28;20037;-74
2022/06/30 09:00:16;;;;;;;2.03;1.10;;;;;;;41.64;nan;99994.88;5000870;28;20519;-75
2022/06/30 09:02:42;;;;;;;1.40;0.90;;;;;;;41.85;nan;100000.72;4992482;28;20034;-73
2022/06/30 09:05:08;;;;;;;2.30;1.10;;;;;;;42.15;nan;99995.19;5004708;28;20592;-74
2022/06/30 09:07:34;;;;;;;1.95;1.13;;;;;;;42.16;nan;99995.97;4992759;28;20038;-75
2022/06/30 09:10:00;;;;;;;3.25;1.50;;;;;;;41.56;nan;99980.91;4983523;28;20048;-75
2022/06/30 09:12:26;;;;;;;3.20;1.30;;;;;;;41.01;nan;99985.97;5011593;28;20518;-74
2022/06/30 09:14:52;;;;;;;2.10;1.25;;;;;;;40.89;nan;99983.41;4994708;28;20030;-74
2022/06/30 09:17:19;;;;;;;1.92;1.30;;;;;;;41.45;nan;99974.38;5009076;28;20052;-74
2022/06/30 09:19:53;;;;;;;1.90;1.38;;;;;;;42.46;nan;99976.47;5009925;28;20124;-75
2022/06/30 09:22:21;;;;;;;1.48;1.00;;;;;;;43.30;nan;99976.81;5004125;28;20052;-74
2022/06/30 09:25:00;;;;;;;3.15;1.50;;;;;;;43.29;nan;99977.19;5010648;28;20044;-75
2022/06/30 09:27:29;;;;;;;2.92;1.20;;;;;;;43.01;nan;99973.81;5011981;28;20384;-75
2022/06/30 09:30:02;;;;;;;2.28;1.20;;;;;;;43.42;nan;99972.91;5001895;28;20465;-75
2022/06/30 09:32:27;;;;;;;2.95;1.45;;;;;;;43.56;nan;99978.56;4991973;28;20046;-74
2022/06/30 09:34:53;;;;;;;2.33;1.20;;;;;;;43.61;nan;99974.66;5002027;28;20112;-75
2022/06/30 09:37:24;;;;;;;2.47;1.50;;;;;;;43.27;nan;99969.25;4997019;28;20096;-74
2022/06/30 09:39:54;;;;;;;2.15;1.35;;;;;;;42.76;nan;99965.22;4994172;28;20549;-74
2022/06/30 09:42:38;;;;;;;2.67;1.50;;;;;;;42.68;nan;99966.34;5013366;28;20045;-74
2022/06/30 09:45:06;;;;;;;1.60;1.13;;;;;;;42.63;nan;99967.50;5004996;28;20038;-75
2022/06/30 09:47:33;;;;;;;2.65;1.48;;;;;;;41.85;nan;99975.72;4992734;28;20407;-75
2022/06/30 09:50:06;;;;;;;2.90;1.20;;;;;;;41.63;nan;99966.34;5003802;28;20026;-76
2022/06/30 09:52:33;;;;;;;1.52;1.10;;;;;;;42.82;nan;99960.16;4990957;28;20459;-75
2022/06/30 09:55:06;;;;;;;2.03;1.08;;;;;;;42.65;nan;99958.78;4993911;28;20543;-75
2022/06/30 09:57:52;;;;;;;1.52;0.95;;;;;;;42.99;nan;99958.69;4999404;28;20034;-76
2022/06/30 10:00:19;;;;;;;3.40;1.05;;;;;;;42.87;nan;99950.66;4990731;28;20052;-75
2022/06/30 10:02:49;;;;;;;3.50;1.25;;;;;;;42.88;nan;99944.69;4980691;28;20034;-75
2022/06/30 10:05:16;;;;;;;1.90;1.10;;;;;;;43.67;nan;99950.78;5011012;28;20030;-75
2022/06/30 10:07:42;;;;;;;2.53;1.17;;;;;;;44.31;nan;99953.81;5006017;28;20037;-76
2022/06/30 10:10:10;;;;;;;3.15;1.25;;;;;;;44.78;nan;99953.09;4977625;28;20088;-75
2022/06/30 10:12:37;;;;;;;1.98;1.23;;;;;;;45.60;nan;99943.81;4995372;28;20285;-75
2022/06/30 10:15:04;;;;;;;2.67;1.40;;;;;;;45.32;nan;99939.91;5013164;28;20030;-75
2022/06/30 10:17:32;;;;;;;2.17;1.20;;;;;;;45.50;nan;99943.41;5007944;28;20046;-75
2022/06/30 10:19:57;;;;;;;3.28;1.67;;;;;;;45.78;nan;99948.13;4987313;28;20038;-76
2022/06/30 10:22:26;;;;;;;3.13;1.40;;;;;;;45.61;nan;99939.84;4993685;28;20094;-75
2022/06/30 10:24:54;;;;;;;2.22;1.40;;;;;;;45.29;nan;99932.31;5007230;28;20040;-76
2022/06/30 10:27:22;;;;;;;3.08;2.00;;;;;;;46.25;nan;99935.94;5011479;28;20041;-75
2022/06/30 10:30:03;;;;;;;1.75;1.33;;;;;;;46.46;nan;99929.38;5009886;28;20049;-75
2022/06/30 10:32:58;;;;;;;2.42;1.60;;;;;;;46.74;nan;99936.78;4994228;28;20034;-75
2022/06/30 10:35:38;;;;;;;2.42;1.35;;;;;;;46.38;nan;99928.66;4996447;28;20123;-75
2022/06/30 10:38:13;;;;;;;1.60;1.10;;;;;;;46.55;nan;99924.91;4993730;28;20041;-75
2022/06/30 10:41:06;;;;;;;2.65;1.40;;;;;;;46.63;nan;99924.84;5002217;28;20113;-76
2022/06/30 10:43:32;;;;;;;2.10;1.20;;;;;;;45.22;nan;99932.34;5012143;28;20036;-75
2022/06/30 10:45:59;;;;;;;2.30;1.10;;;;;;;44.23;nan;99927.13;5010777;28;20034;-76
2022/06/30 10:48:28;;;;;;;1.95;1.30;;;;;;;45.18;nan;99921.16;5009837;28;20049;-75
2022/06/30 10:50:56;;;;;;;3.33;1.42;;;;;;;45.92;nan;99926.91;5012849;28;20184;-76
2022/06/30 10:53:41;;;;;;;1.95;1.20;;;;;;;45.55;nan;99922.66;5012196;28;20040;-76
2022/06/30 10:56:08;;;;;;;1.52;1.00;;;;;;;45.71;nan;99917.44;4994210;28;20034;-76
2022/06/30 10:58:33;;;;;;;3.00;1.33;;;;;;;46.39;nan;99919.88;4995422;28;20401;-75
2022/06/30 11:01:04;;;;;;;3.05;1.40;;;;;;;46.74;nan;99929.19;5001435;28;20026;-75
2022/06/30 11:03:31;;;;;;;1.60;0.95;;;;;;;46.83;nan;99919.53;4975339;28;20039;-75
2022/06/30 11:06:09;;;;;;;1.98;1.00;;;;;;;46.99;nan;99908.56;4981163;28;20034;-75
2022/06/30 11:08:48;;;;;;;2.00;1.20;;;;;;;46.42;nan;99911.88;4973035;28;20038;-75
2022/06/30 11:11:19;;;;;;;2.30;1.30;;;;;;;44.03;nan;99914.75;5001054;28;19933;-75
2022/06/30 11:13:46;;;;;;;2.15;1.35;;;;;;;43.12;nan;99912.66;5006320;28;20196;-76
2022/06/30 11:16:19;;;;;;;2.88;1.10;;;;;;;42.97;nan;99905.44;4973375;28;20069;-76
2022/06/30 11:18:46;;;;;;;2.88;1.25;;;;;;;43.22;nan;99911.97;4995507;28;20510;-75
2022/06/30 11:21:12;;;;;;;2.08;1.35;;;;;;;44.25;nan;99912.78;5011169;28;20033;-75
2022/06/30 11:23:42;;;;;;;1.55;1.10;;;;;;;45.61;nan;99906.31;4996970;28;20042;-76
2022/06/30 11:28:53;;;;;;;1.40;1.00;;;;;;;48.17;nan;99907.09;5016690;28;20040;-76
2022/06/30 11:31:30;;;;;;;1.35;0.80;;;;;;;48.97;nan;99910.22;5001706;28;20588;-75
2022/06/30 11:34:08;;;;;;;2.15;1.20;;;;;;;48.32;nan;99907.72;5010210;28;20107;-76
2022/06/30 11:36:36;;;;;;;1.20;0.90;;;;;;;48.45;nan;99900.25;4990510;28;20034;-76
2022/06/30 11:39:06;;;;;;;1.90;1.00;;;;;;;48.79;nan;99904.13;5012495;28;20033;-75
2022/06/30 11:44:16;;;;;;;1.52;0.90;;;;;;;49.67;nan;99894.41;5020348;28;20106;-75
2022/06/30 11:46:55;;;;;;;1.67;1.15;;;;;;;49.90;nan;99893.50;4989500;28;20046;-76
2022/06/30 11:49:22;;;;;;;1.85;0.82;;;;;;;50.20;nan;99886.75;4989203;28;20438;-76
2022/06/30 11:51:48;;;;;;;1.80;1.20;;;;;;;49.97;nan;99884.88;5008421;28;20041;-75
2022/06/30 11:54:15;;;;;;;1.55;0.88;;;;;;;49.42;nan;99884.47;5008058;28;20034;-76
2022/06/30 11:56:50;;;;;;;1.30;1.00;;;;;;;49.96;nan;99886.09;4972979;28;20035;-74
2022/06/30 11:59:15;;;;;;;2.85;1.20;;;;;;;50.24;nan;99873.41;5000532;28;20121;-75
2022/06/30 12:01:41;;;;;;;1.38;0.90;;;;;;;49.36;nan;99879.81;4990605;28;20494;-74